Time;durP1;ratioP1;P1;durP2;ratioP2;P2;SDS_P1;SDS_P2;PMS_P1;PMS_P2;Temp;Humidity;BMP_temperature;BMP_pressure;BME280_temperature;BME280_humidity;BME280_pressure;Samples;Min_cycle;Max_cycle;Signal;HPM_P1;HPM_P2
2021/07/29 00:00:38;;;;;;;2.50;2.00;;;19.00;52.00;;;;;;4350708;32;20540;-73
2021/07/29 00:03:05;;;;;;;3.55;2.37;;;18.90;52.30;;;;;;4363134;32;20136;-73
2021/07/29 00:05:35;;;;;;;2.83;2.25;;;18.80;53.40;;;;;;4338153;32;20093;-73
2021/07/29 00:08:02;;;;;;;4.65;2.37;;;18.70;53.90;;;;;;4350517;32;20081;-73
2021/07/29 00:10:28;;;;;;;2.40;2.08;;;18.80;54.00;;;;;;4351158;32;20080;-73
2021/07/29 00:12:54;;;;;;;2.92;2.10;;;18.90;54.10;;;;;;4351036;32;20080;-73
2021/07/29 00:15:21;;;;;;;4.95;2.25;;;18.90;54.30;;;;;;4362996;32;20178;-73
2021/07/29 00:20:24;;;;;;;3.60;2.40;;;19.00;55.50;;;;;;4350495;32;20621;-73
2021/07/29 00:22:53;;;;;;;4.87;2.50;;;18.90;55.70;;;;;;4362855;32;20066;-73
2021/07/29 00:25:22;;;;;;;2.65;2.33;;;19.00;56.50;;;;;;4338062;32;20113;-73
2021/07/29 00:27:48;;;;;;;3.70;2.72;;;19.10;56.30;;;;;;4337892;32;20485;-73
2021/07/29 00:30:16;;;;;;;4.57;2.58;;;19.10;56.40;;;;;;4362880;32;20501;-73
2021/07/29 00:32:43;;;;;;;3.67;2.65;;;19.20;55.50;;;;;;4350522;32;20516;-74
2021/07/29 00:35:14;;;;;;;5.55;2.70;;;19.10;55.80;;;;;;4349987;32;20169;-73
2021/07/29 00:37:49;;;;;;;3.58;2.33;;;19.30;52.40;;;;;;4363171;32;20548;-73
2021/07/29 00:40:16;;;;;;;4.00;2.60;;;19.40;49.30;;;;;;4351361;32;20124;-74
2021/07/29 00:42:42;;;;;;;3.60;2.62;;;19.40;49.00;;;;;;4362562;32;20508;-73
2021/07/29 00:45:09;;;;;;;5.28;2.60;;;19.40;49.30;;;;;;4362177;32;20534;-73
2021/07/29 00:47:36;;;;;;;4.57;2.58;;;19.30;49.60;;;;;;4338031;32;20069;-73
2021/07/29 00:50:03;;;;;;;5.40;2.58;;;19.30;50.20;;;;;;4350046;32;20076;-73
2021/07/29 00:52:29;;;;;;;3.70;2.40;;;19.20;50.40;;;;;;4349488;32;20078;-74
2021/07/29 00:54:55;;;;;;;4.47;2.80;;;19.20;50.30;;;;;;4362241;32;20078;-73
2021/07/29 00:57:21;;;;;;;2.72;2.30;;;19.10;50.30;;;;;;4350152;32;20093;-72
2021/07/29 00:59:48;;;;;;;3.67;2.60;;;19.10;49.70;;;;;;4362486;32;20070;-73
2021/07/29 01:02:14;;;;;;;4.10;2.67;;;19.10;49.60;;;;;;4350545;32;20077;-73
2021/07/29 01:04:41;;;;;;;3.22;2.22;;;19.10;49.00;;;;;;4349884;32;20153;-73
2021/07/29 01:07:07;;;;;;;4.12;2.45;;;19.10;49.00;;;;;;4350036;32;20504;-73
2021/07/29 01:09:33;;;;;;;2.58;1.98;;;19.10;49.00;;;;;;4376316;32;20105;-73
2021/07/29 01:11:59;;;;;;;2.80;2.10;;;19.10;48.40;;;;;;4362310;32;20163;-73
2021/07/29 01:14:25;;;;;;;3.58;2.85;;;19.00;48.10;;;;;;4349695;32;20079;-73
2021/07/29 01:16:51;;;;;;;3.62;2.20;;;19.00;48.40;;;;;;4361972;32;20175;-73
2021/07/29 01:19:20;;;;;;;3.05;2.12;;;19.00;48.80;;;;;;4362468;32;20169;-73
2021/07/29 01:21:46;;;;;;;2.95;2.12;;;18.90;49.70;;;;;;4337552;32;20094;-73
2021/07/29 01:24:12;;;;;;;2.80;1.85;;;18.90;50.30;;;;;;4337878;32;20090;-73
2021/07/29 01:26:38;;;;;;;4.03;2.00;;;18.90;50.80;;;;;;4362299;32;20085;-73
2021/07/29 01:29:05;;;;;;;3.42;2.30;;;18.90;51.00;;;;;;4350057;32;20092;-73
2021/07/29 01:31:31;;;;;;;3.53;2.15;;;19.00;51.00;;;;;;4362537;32;20181;-73
2021/07/29 01:33:57;;;;;;;3.28;2.10;;;19.00;51.00;;;;;;4376391;32;20063;-73
2021/07/29 01:36:23;;;;;;;3.05;2.20;;;19.00;51.60;;;;;;4362307;32;20467;-73
2021/07/29 01:38:50;;;;;;;4.40;2.10;;;19.00;52.40;;;;;;4351551;32;20078;-73
2021/07/29 01:41:16;;;;;;;3.70;2.28;;;19.00;52.60;;;;;;4352337;32;20597;-73
2021/07/29 01:43:42;;;;;;;4.22;2.28;;;19.00;52.70;;;;;;4352875;32;20084;-74
2021/07/29 01:46:08;;;;;;;3.10;2.17;;;19.00;53.20;;;;;;4378467;32;20077;-73
2021/07/29 01:48:34;;;;;;;4.85;2.20;;;19.10;53.40;;;;;;4364831;32;20170;-73
2021/07/29 01:51:01;;;;;;;6.78;2.45;;;19.10;53.40;;;;;;4364805;32;20178;-74
2021/07/29 01:53:27;;;;;;;3.10;2.25;;;19.00;54.10;;;;;;4364743;32;20507;-73
2021/07/29 01:55:53;;;;;;;2.95;2.10;;;19.10;54.10;;;;;;4352380;32;20096;-73
2021/07/29 01:58:19;;;;;;;3.83;2.15;;;19.10;54.20;;;;;;4364641;32;20519;-73
2021/07/29 02:00:49;;;;;;;4.07;1.98;;;19.20;54.20;;;;;;4365357;32;20101;-73
2021/07/29 02:03:15;;;;;;;3.58;1.92;;;19.20;53.90;;;;;;4352410;32;20597;-73
2021/07/29 02:05:41;;;;;;;6.65;1.92;;;19.20;54.10;;;;;;4379383;32;20066;-73
2021/07/29 02:08:07;;;;;;;2.35;1.70;;;19.30;54.10;;;;;;4352377;32;20504;-73
2021/07/29 02:10:34;;;;;;;2.53;1.90;;;19.30;54.20;;;;;;4364802;32;20183;-73
2021/07/29 02:13:00;;;;;;;2.75;1.90;;;19.30;54.20;;;;;;4352162;32;20505;-73
2021/07/29 02:15:26;;;;;;;2.97;1.83;;;19.30;53.90;;;;;;4352292;32;20534;-73
2021/07/29 02:17:57;;;;;;;2.60;1.98;;;19.40;53.60;;;;;;4352453;32;20154;-73
2021/07/29 02:20:23;;;;;;;3.45;1.83;;;19.50;53.50;;;;;;4340007;32;20070;-73
2021/07/29 02:22:49;;;;;;;3.50;2.10;;;19.50;52.80;;;;;;4339769;32;20157;-73
2021/07/29 02:25:15;;;;;;;3.65;1.90;;;19.60;52.50;;;;;;4339426;32;20093;-73
2021/07/29 02:27:42;;;;;;;2.08;1.70;;;19.70;52.10;;;;;;4352084;32;20090;-73
2021/07/29 02:30:09;;;;;;;2.28;1.60;;;19.70;51.70;;;;;;4351807;32;20512;-73
2021/07/29 02:32:35;;;;;;;2.65;1.98;;;19.70;51.40;;;;;;4364312;32;20074;-73
2021/07/29 02:35:01;;;;;;;3.03;2.10;;;19.80;51.40;;;;;;4364032;32;20093;-73
2021/07/29 02:37:27;;;;;;;2.53;1.95;;;19.90;51.10;;;;;;4364163;32;20529;-73
2021/07/29 02:39:53;;;;;;;3.08;1.80;;;19.90;51.50;;;;;;4364285;32;20147;-73
2021/07/29 02:42:19;;;;;;;2.08;1.73;;;19.90;51.40;;;;;;4351552;32;20070;-73
2021/07/29 02:44:46;;;;;;;2.65;1.90;;;20.00;51.60;;;;;;4351869;32;20070;-73
2021/07/29 02:47:13;;;;;;;5.53;1.85;;;20.00;51.60;;;;;;4351407;32;20538;-74
2021/07/29 02:49:39;;;;;;;3.35;1.90;;;20.10;51.80;;;;;;4339724;32;20090;-73
2021/07/29 02:52:05;;;;;;;4.22;1.80;;;20.10;51.60;;;;;;4363753;32;20094;-73
2021/07/29 02:54:32;;;;;;;3.08;1.90;;;20.20;51.70;;;;;;4351559;32;20090;-73
2021/07/29 02:56:58;;;;;;;2.92;1.83;;;20.20;51.90;;;;;;4351505;32;20063;-73
2021/07/29 02:59:24;;;;;;;3.83;2.00;;;20.30;51.90;;;;;;4351513;32;20078;-74
2021/07/29 03:01:50;;;;;;;4.70;2.25;;;20.30;51.90;;;;;;4363694;32;20178;-73
2021/07/29 03:04:16;;;;;;;3.15;1.92;;;20.50;51.80;;;;;;4351481;32;20509;-73
2021/07/29 03:06:42;;;;;;;1.77;1.58;;;20.50;51.70;;;;;;4351600;32;20073;-73
2021/07/29 03:09:11;;;;;;;2.75;1.80;;;20.60;51.10;;;;;;4363711;32;20077;-73
2021/07/29 03:11:37;;;;;;;6.45;1.92;;;20.70;50.30;;;;;;4351990;32;20643;-73
2021/07/29 03:14:04;;;;;;;2.90;1.75;;;20.90;50.20;;;;;;4351395;32;20086;-73
2021/07/29 03:16:30;;;;;;;4.93;2.10;;;20.90;50.00;;;;;;4363880;32;20582;-73
2021/07/29 03:18:56;;;;;;;3.55;2.20;;;21.00;49.40;;;;;;4338921;32;20081;-74
2021/07/29 03:21:22;;;;;;;3.62;1.92;;;21.20;49.20;;;;;;4363658;32;20081;-74
2021/07/29 03:23:48;;;;;;;4.87;2.33;;;21.30;49.00;;;;;;4363532;32;20253;-73
2021/07/29 03:26:15;;;;;;;2.60;1.65;;;21.30;50.20;;;;;;4363664;32;20073;-74
2021/07/29 03:28:41;;;;;;;4.18;2.10;;;21.40;48.80;;;;;;4338759;32;20080;-74
2021/07/29 03:31:07;;;;;;;3.78;1.80;;;21.50;48.60;;;;;;4363603;32;20094;-73
2021/07/29 03:33:33;;;;;;;2.92;1.87;;;21.50;48.30;;;;;;4363470;32;20486;-73
2021/07/29 03:35:59;;;;;;;4.45;1.80;;;21.60;48.00;;;;;;4363124;32;20166;-74
2021/07/29 03:38:25;;;;;;;4.12;1.95;;;21.70;47.40;;;;;;4363443;32;20085;-74
2021/07/29 03:40:51;;;;;;;2.28;1.95;;;21.80;47.00;;;;;;4377339;32;20071;-74
2021/07/29 03:43:18;;;;;;;2.90;2.12;;;21.90;47.00;;;;;;4363580;32;20077;-74
2021/07/29 03:45:44;;;;;;;4.35;2.00;;;22.00;46.70;;;;;;4363164;32;20089;-73
2021/07/29 03:48:11;;;;;;;4.85;2.28;;;22.10;46.70;;;;;;4377114;32;20075;-73
2021/07/29 03:50:40;;;;;;;4.43;2.10;;;22.20;46.30;;;;;;4338116;32;20074;-73
2021/07/29 03:53:06;;;;;;;3.60;2.35;;;22.40;46.20;;;;;;4350735;32;20074;-73
2021/07/29 03:55:33;;;;;;;3.95;2.33;;;22.40;46.50;;;;;;4350238;32;20509;-73
2021/07/29 03:57:59;;;;;;;2.90;2.50;;;22.40;46.30;;;;;;4363411;32;20089;-74
2021/07/29 04:00:26;;;;;;;3.30;2.20;;;22.50;46.20;;;;;;4350116;32;20085;-72
2021/07/29 04:02:52;;;;;;;3.08;2.22;;;22.50;45.90;;;;;;4363502;32;20162;-73
2021/07/29 04:05:18;;;;;;;3.25;2.37;;;22.50;46.10;;;;;;4338573;32;20070;-73
2021/07/29 04:07:44;;;;;;;3.92;2.60;;;22.70;45.40;;;;;;4362847;32;20523;-73
2021/07/29 04:10:11;;;;;;;3.90;2.30;;;22.80;44.60;;;;;;4362805;32;20086;-72
2021/07/29 04:12:37;;;;;;;4.15;2.42;;;22.90;43.60;;;;;;4351163;32;20231;-73
2021/07/29 04:15:04;;;;;;;4.70;2.28;;;23.10;43.10;;;;;;4350811;32;20088;-73
2021/07/29 04:17:30;;;;;;;5.40;2.10;;;23.20;43.30;;;;;;4350325;32;20174;-74
2021/07/29 04:19:59;;;;;;;3.42;2.17;;;23.20;42.90;;;;;;4350361;32;20159;-74
2021/07/29 04:22:26;;;;;;;2.85;2.25;;;23.20;43.50;;;;;;4350852;32;20086;-74
2021/07/29 04:24:55;;;;;;;3.70;2.30;;;23.20;43.20;;;;;;4351007;32;20067;-74
2021/07/29 04:27:22;;;;;;;4.75;2.45;;;23.10;43.70;;;;;;4362445;32;20588;-74
2021/07/29 04:29:49;;;;;;;3.17;2.47;;;23.20;43.30;;;;;;4337859;32;20101;-74
2021/07/29 04:32:15;;;;;;;3.65;2.45;;;23.30;43.20;;;;;;4350035;32;20101;-74
2021/07/29 04:34:41;;;;;;;3.25;2.40;;;23.40;42.40;;;;;;4362427;32;20165;-73
2021/07/29 04:37:11;;;;;;;2.65;2.28;;;23.70;42.10;;;;;;4376409;32;20078;-74
2021/07/29 04:39:41;;;;;;;3.53;2.60;;;24.20;41.00;;;;;;4376582;32;20074;-74
2021/07/29 04:42:08;;;;;;;3.47;2.62;;;23.80;41.60;;;;;;4363081;32;20146;-74
2021/07/29 04:44:34;;;;;;;4.78;2.87;;;23.70;42.30;;;;;;4338013;32;20090;-74
2021/07/29 04:47:00;;;;;;;3.45;2.35;;;23.80;42.60;;;;;;4350003;32;20070;-73
2021/07/29 04:49:27;;;;;;;4.43;2.60;;;24.00;42.20;;;;;;4338165;32;20695;-73
2021/07/29 04:51:53;;;;;;;5.47;2.90;;;24.00;41.40;;;;;;4347297;32;20090;-74
2021/07/29 04:54:19;;;;;;;3.70;2.50;;;24.30;42.20;;;;;;4335771;32;20086;-74
2021/07/29 04:56:45;;;;;;;5.07;2.80;;;24.10;42.20;;;;;;4372179;32;20081;-74
2021/07/29 04:59:11;;;;;;;4.37;2.78;;;24.20;42.10;;;;;;4361280;32;20089;-73
2021/07/29 05:01:38;;;;;;;4.57;3.05;;;23.80;42.70;;;;;;4359658;32;20086;-73
2021/07/29 05:04:05;;;;;;;3.15;2.28;;;23.60;43.20;;;;;;4360021;32;20457;-73
2021/07/29 05:06:32;;;;;;;6.62;2.45;;;23.60;44.10;;;;;;4347594;32;20079;-73
2021/07/29 05:08:58;;;;;;;4.82;3.15;;;23.60;44.60;;;;;;4347399;32;20165;-73
2021/07/29 05:11:24;;;;;;;5.37;3.00;;;23.50;45.10;;;;;;4359927;32;20071;-74
2021/07/29 05:13:53;;;;;;;4.93;3.53;;;23.50;45.80;;;;;;4349339;32;20150;-74
2021/07/29 05:16:19;;;;;;;4.28;3.00;;;23.20;46.50;;;;;;4338178;32;20461;-74
2021/07/29 05:18:46;;;;;;;7.40;3.00;;;23.10;47.20;;;;;;4338715;32;20106;-74
2021/07/29 05:21:12;;;;;;;5.72;3.28;;;23.20;47.60;;;;;;4350963;32;20166;-75
2021/07/29 05:23:38;;;;;;;7.18;3.37;;;23.20;47.80;;;;;;4363253;32;20171;-75
2021/07/29 05:26:04;;;;;;;5.72;3.25;;;23.10;48.20;;;;;;4350778;32;20090;-75
2021/07/29 05:28:30;;;;;;;4.43;3.00;;;23.10;48.50;;;;;;4338163;32;20086;-74
2021/07/29 05:30:57;;;;;;;6.05;2.80;;;23.00;48.90;;;;;;4349902;32;20497;-74
2021/07/29 05:33:23;;;;;;;6.40;3.30;;;23.00;49.40;;;;;;4338143;32;20164;-75
2021/07/29 05:35:49;;;;;;;4.45;2.78;;;22.90;49.00;;;;;;4350438;32;20077;-75
2021/07/29 05:38:15;;;;;;;4.53;3.03;;;22.80;48.50;;;;;;4349972;32;20114;-75
2021/07/29 05:40:41;;;;;;;11.48;3.60;;;23.00;48.40;;;;;;4364034;32;20189;-76
2021/07/29 05:43:08;;;;;;;9.75;3.10;;;23.10;47.00;;;;;;4349841;32;20085;-75
2021/07/29 05:45:34;;;;;;;3.87;2.55;;;23.10;47.10;;;;;;4349730;32;20587;-73
2021/07/29 05:48:00;;;;;;;4.22;2.92;;;23.00;47.40;;;;;;4349938;32;20075;-74
2021/07/29 05:50:26;;;;;;;4.10;2.78;;;22.80;49.30;;;;;;4337952;32;20145;-75
2021/07/29 05:52:52;;;;;;;4.68;3.00;;;22.70;51.70;;;;;;4349867;32;20105;-76
2021/07/29 05:55:18;;;;;;;5.95;3.10;;;22.50;53.20;;;;;;4362178;32;20067;-75
2021/07/29 05:57:45;;;;;;;5.90;2.90;;;22.40;55.30;;;;;;4361974;32;20161;-74
2021/07/29 06:00:11;;;;;;;5.15;2.83;;;22.30;56.50;;;;;;4338006;32;20108;-73
2021/07/29 06:02:37;;;;;;;5.00;2.90;;;22.30;57.50;;;;;;4349910;32;20498;-73
2021/07/29 06:05:04;;;;;;;6.45;3.15;;;22.30;58.40;;;;;;4363795;32;20171;-74
2021/07/29 06:07:31;;;;;;;4.15;2.33;;;22.40;60.80;;;;;;4362309;32;20497;-73
2021/07/29 06:09:57;;;;;;;6.65;3.28;;;22.50;58.60;;;;;;4349911;32;20086;-74
2021/07/29 06:12:27;;;;;;;5.37;2.80;;;22.50;59.00;;;;;;4362057;32;20090;-71
2021/07/29 06:14:54;;;;;;;5.85;2.95;;;22.60;58.70;;;;;;4339008;32;20074;-71
2021/07/29 06:17:33;;;;;;;4.62;3.00;;;22.40;59.10;;;;;;4337682;32;20517;-72
2021/07/29 06:20:07;;;;;;;4.37;2.65;;;22.40;59.70;;;;;;4339827;32;20073;-72
2021/07/29 06:22:33;;;;;;;4.10;2.37;;;22.40;59.70;;;;;;4363022;32;20168;-71
2021/07/29 06:25:00;;;;;;;4.82;2.95;;;22.40;60.70;;;;;;4336875;32;20085;-73
2021/07/29 06:27:26;;;;;;;5.40;2.70;;;22.30;62.00;;;;;;4337122;32;20081;-71
2021/07/29 06:29:52;;;;;;;5.07;3.10;;;22.50;62.50;;;;;;4349318;32;20089;-72
2021/07/29 06:32:19;;;;;;;4.75;3.03;;;22.40;64.00;;;;;;4361584;32;20074;-70
2021/07/29 06:34:45;;;;;;;4.18;3.08;;;22.30;66.00;;;;;;4337100;32;20082;-71
2021/07/29 06:37:11;;;;;;;4.12;2.72;;;22.30;67.10;;;;;;4337148;32;20167;-72
2021/07/29 06:39:38;;;;;;;5.00;2.70;;;22.40;68.10;;;;;;4336865;32;20527;-73
2021/07/29 06:42:04;;;;;;;7.37;2.80;;;22.40;67.80;;;;;;4349271;32;20217;-71
2021/07/29 06:44:30;;;;;;;4.70;2.80;;;22.40;66.40;;;;;;4349571;32;20434;-71
2021/07/29 06:46:57;;;;;;;5.18;2.95;;;22.40;65.70;;;;;;4348959;32;20153;-71
2021/07/29 06:49:31;;;;;;;4.72;2.85;;;22.50;66.00;;;;;;4361647;32;20493;-72
2021/07/29 06:51:57;;;;;;;3.55;2.83;;;22.70;63.10;;;;;;4337161;32;20079;-70
2021/07/29 06:54:23;;;;;;;4.47;2.62;;;22.70;60.10;;;;;;4361892;32;20460;-72
2021/07/29 06:56:50;;;;;;;4.10;2.65;;;22.70;58.20;;;;;;4337139;32;20183;-72
2021/07/29 06:59:16;;;;;;;10.30;3.05;;;22.50;58.30;;;;;;4337010;32;20081;-75
2021/07/29 07:01:42;;;;;;;4.82;2.75;;;22.60;58.70;;;;;;4349166;32;20075;-71
2021/07/29 07:04:08;;;;;;;6.15;3.28;;;22.70;58.50;;;;;;4336844;32;20070;-76
2021/07/29 07:06:34;;;;;;;4.12;2.70;;;22.50;58.80;;;;;;4361542;32;20165;-77
2021/07/29 07:09:00;;;;;;;4.60;2.90;;;22.50;59.10;;;;;;4348690;32;20460;-76
2021/07/29 07:11:27;;;;;;;5.15;2.90;;;22.60;58.70;;;;;;4361591;32;20070;-76
2021/07/29 07:13:53;;;;;;;6.35;3.08;;;22.60;59.20;;;;;;4336896;32;20086;-75
2021/07/29 07:16:19;;;;;;;6.12;2.80;;;22.70;59.00;;;;;;4336886;32;20174;-75
2021/07/29 07:18:45;;;;;;;4.75;3.00;;;22.70;59.80;;;;;;4361022;32;20085;-74
2021/07/29 07:21:11;;;;;;;6.15;3.30;;;22.60;62.10;;;;;;4348776;32;20506;-72
2021/07/29 07:23:38;;;;;;;5.55;3.00;;;22.70;61.70;;;;;;4361218;32;20166;-73
2021/07/29 07:26:05;;;;;;;7.57;3.22;;;22.80;61.70;;;;;;4349058;32;20426;-73
2021/07/29 07:28:31;;;;;;;4.53;2.55;;;22.90;62.70;;;;;;4336579;32;20108;-72
2021/07/29 07:30:58;;;;;;;5.37;2.97;;;23.00;61.80;;;;;;4345067;32;20576;-74
2021/07/29 07:33:24;;;;;;;6.97;3.15;;;23.20;62.50;;;;;;4344437;32;20083;-74
2021/07/29 07:35:52;;;;;;;4.70;2.80;;;22.60;64.40;;;;;;4330694;32;20068;-68
2021/07/29 07:38:19;;;;;;;5.87;3.40;;;22.40;66.30;;;;;;4341167;33;20142;-68
2021/07/29 07:40:45;;;;;;;3.85;2.60;;;22.40;66.70;;;;;;4323800;32;20081;-69
2021/07/29 07:43:11;;;;;;;6.70;2.90;;;22.40;66.80;;;;;;4326414;32;20552;-74
2021/07/29 07:45:38;;;;;;;5.75;3.20;;;22.40;65.60;;;;;;4335620;32;20078;-61
2021/07/29 07:48:05;;;;;;;4.93;3.05;;;22.70;63.50;;;;;;4338522;32;20101;-67
2021/07/29 07:50:31;;;;;;;7.25;3.00;;;23.10;62.40;;;;;;4325669;32;20090;-68
2021/07/29 07:52:57;;;;;;;6.60;2.72;;;23.10;62.50;;;;;;4333467;32;20129;-69
2021/07/29 07:55:23;;;;;;;6.68;3.08;;;23.00;62.70;;;;;;4345937;32;20194;-68
2021/07/29 07:57:50;;;;;;;4.87;3.15;;;23.20;61.30;;;;;;4343685;32;20093;-69
2021/07/29 08:00:16;;;;;;;5.15;3.30;;;22.70;65.00;;;;;;4360245;32;20506;-69
2021/07/29 08:02:43;;;;;;;3.87;2.83;;;22.90;63.20;;;;;;4331648;32;20444;-68
2021/07/29 08:05:11;;;;;;;6.12;3.17;;;22.80;64.10;;;;;;4354652;32;20110;-66
2021/07/29 08:07:37;;;;;;;6.57;3.10;;;22.80;64.60;;;;;;4345140;32;20106;-69
2021/07/29 08:10:04;;;;;;;5.57;3.08;;;22.80;67.00;;;;;;4342422;32;20509;-68
2021/07/29 08:12:30;;;;;;;4.93;2.78;;;23.10;65.20;;;;;;4332468;32;20067;-71
2021/07/29 08:14:57;;;;;;;4.28;3.17;;;23.20;62.00;;;;;;4359282;32;20114;-69
2021/07/29 08:17:23;;;;;;;6.07;3.40;;;22.70;66.40;;;;;;4333048;32;20110;-75
2021/07/29 08:19:49;;;;;;;7.20;2.90;;;22.40;68.50;;;;;;4323343;32;20174;-69
2021/07/29 08:22:15;;;;;;;4.87;3.12;;;22.50;68.10;;;;;;4351932;32;20101;-64
2021/07/29 08:24:42;;;;;;;6.62;3.17;;;22.60;65.90;;;;;;4327791;32;20240;-69
2021/07/29 08:27:11;;;;;;;6.50;3.25;;;22.80;65.60;;;;;;4331001;32;20492;-68
2021/07/29 08:29:38;;;;;;;3.60;2.70;;;22.80;64.50;;;;;;4304878;32;20253;-67
2021/07/29 08:32:05;;;;;;;4.37;3.05;;;23.00;64.30;;;;;;4340467;32;20070;-69
2021/07/29 08:34:31;;;;;;;5.70;3.22;;;23.20;62.40;;;;;;4361333;32;20152;-68
2021/07/29 08:36:57;;;;;;;4.25;3.15;;;23.00;62.90;;;;;;4330108;32;20081;-69
2021/07/29 08:39:23;;;;;;;4.70;3.00;;;23.30;62.30;;;;;;4355424;32;20187;-71
2021/07/29 08:41:51;;;;;;;6.93;3.20;;;23.20;62.90;;;;;;4358355;32;21446;-69
2021/07/29 08:44:17;;;;;;;5.70;3.22;;;23.50;61.70;;;;;;4346084;32;20077;-72
2021/07/29 08:46:44;;;;;;;5.07;2.92;;;23.60;59.90;;;;;;4370588;32;20172;-69
2021/07/29 08:49:11;;;;;;;4.90;2.90;;;23.50;60.00;;;;;;4334690;32;20083;-70
2021/07/29 08:51:38;;;;;;;3.85;3.10;;;23.70;57.20;;;;;;4346297;32;20544;-69
2021/07/29 08:54:08;;;;;;;4.60;2.90;;;23.90;57.90;;;;;;4336579;32;20094;-72
2021/07/29 08:56:35;;;;;;;5.65;2.92;;;23.70;54.80;;;;;;4325007;32;20097;-69
2021/07/29 08:59:01;;;;;;;4.50;2.78;;;23.70;55.20;;;;;;4348471;32;20112;-66
2021/07/29 09:01:52;;;;;;;5.22;2.90;;;23.50;53.50;;;;;;4336197;32;20605;-68
2021/07/29 09:04:18;;;;;;;6.00;2.92;;;23.50;55.30;;;;;;4350093;32;20074;-68
2021/07/29 09:07:02;;;;;;;4.15;3.10;;;23.60;55.00;;;;;;4335935;32;20101;-67
2021/07/29 09:09:48;;;;;;;5.05;3.00;;;23.40;56.10;;;;;;4335270;32;20501;-69
2021/07/29 09:12:18;;;;;;;7.67;3.33;;;23.30;56.50;;;;;;4321975;32;20188;-72
2021/07/29 09:14:48;;;;;;;5.20;2.90;;;23.30;57.60;;;;;;4343664;32;20078;-71
2021/07/29 09:17:17;;;;;;;5.50;3.42;;;23.30;58.20;;;;;;4328993;32;20063;-73
2021/07/29 09:19:45;;;;;;;4.90;3.00;;;23.50;58.20;;;;;;4329299;32;20083;-73
2021/07/29 09:22:16;;;;;;;5.80;3.00;;;23.50;56.70;;;;;;4319660;32;20092;-72
2021/07/29 09:25:06;;;;;;;3.65;2.72;;;23.70;56.30;;;;;;4343123;32;20145;-75
2021/07/29 09:27:38;;;;;;;4.75;2.97;;;23.60;56.40;;;;;;4330924;32;20067;-76
2021/07/29 09:30:21;;;;;;;4.50;3.03;;;24.00;55.80;;;;;;4357191;32;20134;-74
2021/07/29 09:33:16;;;;;;;4.70;3.28;;;24.00;56.40;;;;;;4345263;32;20144;-73
2021/07/29 09:35:51;;;;;;;5.15;3.12;;;24.40;55.80;;;;;;4345060;32;20082;-73
2021/07/29 09:38:22;;;;;;;4.75;3.03;;;24.30;56.90;;;;;;4334420;32;20066;-67
2021/07/29 09:41:15;;;;;;;4.78;3.00;;;24.00;57.80;;;;;;4344339;32;20062;-69
2021/07/29 09:43:42;;;;;;;4.22;2.78;;;23.90;58.20;;;;;;4354914;32;20478;-76
2021/07/29 09:46:18;;;;;;;3.55;2.92;;;23.60;58.30;;;;;;4338443;32;20242;-68
2021/07/29 09:48:45;;;;;;;6.45;3.08;;;23.70;58.20;;;;;;4334322;32;20627;-68
2021/07/29 09:51:12;;;;;;;4.97;3.08;;;23.90;57.20;;;;;;4316591;32;20081;-65
2021/07/29 09:53:38;;;;;;;5.97;3.05;;;23.80;57.30;;;;;;4342899;32;20496;-66
2021/07/29 09:56:14;;;;;;;7.43;3.22;;;23.70;57.00;;;;;;4310939;32;20092;-66
2021/07/29 09:58:41;;;;;;;5.22;3.22;;;23.70;56.70;;;;;;4337914;32;20151;-64
2021/07/29 10:01:08;;;;;;;4.90;3.15;;;23.80;56.30;;;;;;4340027;32;20157;-67
2021/07/29 10:03:43;;;;;;;3.90;2.90;;;23.90;56.30;;;;;;4337858;32;20116;-72
2021/07/29 10:06:17;;;;;;;4.17;2.70;;;23.80;56.90;;;;;;4343036;32;20181;-67
2021/07/29 10:08:56;;;;;;;6.07;2.83;;;24.00;56.80;;;;;;4349459;32;20635;-63
2021/07/29 10:11:25;;;;;;;5.50;3.25;;;23.80;57.50;;;;;;4330165;32;20156;-67
2021/07/29 10:13:52;;;;;;;5.93;3.20;;;23.80;58.10;;;;;;4330605;32;20137;-66
2021/07/29 10:16:48;;;;;;;6.87;3.28;;;24.00;57.10;;;;;;4356221;32;20150;-65
2021/07/29 10:19:17;;;;;;;4.70;3.08;;;24.10;57.10;;;;;;4341194;32;20066;-73
2021/07/29 10:21:44;;;;;;;5.82;3.00;;;23.90;57.60;;;;;;4337689;32;20098;-71
2021/07/29 10:24:11;;;;;;;6.05;3.12;;;23.90;57.50;;;;;;4333415;32;20182;-73
2021/07/29 10:26:59;;;;;;;6.75;3.00;;;23.80;57.80;;;;;;4351187;32;20074;-69
2021/07/29 10:29:30;;;;;;;4.65;2.90;;;23.50;58.30;;;;;;4368530;32;20084;-65
2021/07/29 10:31:57;;;;;;;5.85;3.20;;;23.80;58.30;;;;;;4351087;32;21028;-64
2021/07/29 10:34:28;;;;;;;5.62;3.17;;;23.70;58.20;;;;;;4337994;32;20077;-70
2021/07/29 10:36:56;;;;;;;5.93;3.22;;;23.40;59.30;;;;;;4358525;32;20093;-67
2021/07/29 10:39:23;;;;;;;7.18;3.53;;;23.70;59.70;;;;;;4345417;32;20109;-67
2021/07/29 10:41:55;;;;;;;4.78;3.15;;;23.90;58.80;;;;;;4324917;32;20174;-69
2021/07/29 10:44:37;;;;;;;6.72;3.87;;;23.50;58.50;;;;;;4336609;32;20133;-69
2021/07/29 10:47:05;;;;;;;5.43;3.53;;;24.00;58.60;;;;;;4360204;32;20082;-64
2021/07/29 10:49:57;;;;;;;6.47;2.83;;;23.90;57.90;;;;;;4343826;32;20105;-65
2021/07/29 10:52:24;;;;;;;4.62;3.03;;;24.20;57.20;;;;;;4353529;32;20164;-70
2021/07/29 10:54:52;;;;;;;4.65;2.97;;;23.90;55.60;;;;;;4347971;32;20105;-70
2021/07/29 10:57:18;;;;;;;8.32;3.42;;;23.90;56.30;;;;;;4337407;32;20059;-66
2021/07/29 10:59:44;;;;;;;5.85;3.40;;;24.00;54.60;;;;;;4368468;32;20161;-64
2021/07/29 11:02:17;;;;;;;5.00;3.30;;;24.40;54.20;;;;;;4360114;32;20753;-68
2021/07/29 11:04:58;;;;;;;5.40;3.33;;;24.40;53.20;;;;;;4335277;32;20170;-64
2021/07/29 11:07:28;;;;;;;6.95;2.92;;;24.70;51.60;;;;;;4347791;32;20585;-72
2021/07/29 11:10:04;;;;;;;6.28;3.50;;;24.20;53.20;;;;;;4337191;32;20074;-67
2021/07/29 11:12:30;;;;;;;5.95;3.42;;;24.50;52.30;;;;;;4359194;32;20118;-69
2021/07/29 11:15:00;;;;;;;5.20;3.15;;;24.60;51.30;;;;;;4345886;32;20101;-66
2021/07/29 11:17:27;;;;;;;6.22;3.50;;;24.80;51.10;;;;;;4350140;32;20078;-67
2021/07/29 11:19:53;;;;;;;6.68;3.33;;;24.50;52.30;;;;;;4335349;32;20129;-70
2021/07/29 11:22:19;;;;;;;3.75;3.08;;;24.90;51.80;;;;;;4347918;32;20202;-70
2021/07/29 11:24:46;;;;;;;6.37;3.72;;;25.00;50.90;;;;;;4361011;32;20077;-67
2021/07/29 11:27:15;;;;;;;4.45;3.17;;;25.20;50.40;;;;;;4335921;32;20070;-67
2021/07/29 11:29:59;;;;;;;4.18;3.30;;;25.30;49.80;;;;;;4349037;32;20062;-75
2021/07/29 11:32:37;;;;;;;4.85;3.30;;;25.20;49.80;;;;;;4345927;32;20093;-68
2021/07/29 11:35:04;;;;;;;5.30;3.30;;;24.70;50.00;;;;;;4343092;32;20089;-64
2021/07/29 11:37:42;;;;;;;4.65;3.20;;;24.90;50.00;;;;;;4323002;32;20101;-63
2021/07/29 11:40:22;;;;;;;6.15;2.95;;;24.80;49.00;;;;;;4343213;32;20074;-65
2021/07/29 11:42:49;;;;;;;10.35;3.17;;;24.70;50.40;;;;;;4337222;32;20074;-65
2021/07/29 11:45:24;;;;;;;7.43;3.08;;;24.90;50.00;;;;;;4322953;32;20159;-65
2021/07/29 11:47:50;;;;;;;5.47;3.12;;;24.80;50.30;;;;;;4347957;32;20074;-67
2021/07/29 11:50:36;;;;;;;6.95;3.40;;;25.10;49.80;;;;;;4308533;32;20629;-69
2021/07/29 11:53:06;;;;;;;5.40;3.40;;;25.00;49.00;;;;;;4338562;32;20058;-63
2021/07/29 11:55:33;;;;;;;5.97;3.28;;;25.20;48.80;;;;;;4335525;32;20085;-63
2021/07/29 11:58:13;;;;;;;7.45;3.47;;;25.60;47.60;;;;;;4335070;32;20505;-66
2021/07/29 12:00:41;;;;;;;7.28;3.72;;;25.20;48.00;;;;;;4335139;32;20078;-66
2021/07/29 12:03:10;;;;;;;7.80;3.08;;;25.40;48.30;;;;;;4320348;33;20140;-68
2021/07/29 12:05:36;;;;;;;6.87;3.58;;;25.20;47.80;;;;;;4324870;32;20135;-65
2021/07/29 12:08:05;;;;;;;5.05;3.20;;;25.30;48.60;;;;;;4347593;32;20179;-65
2021/07/29 12:10:32;;;;;;;4.03;2.90;;;25.60;48.00;;;;;;4323924;32;20078;-68
2021/07/29 12:12:58;;;;;;;5.57;3.10;;;25.20;47.90;;;;;;4344862;32;20494;-67
2021/07/29 12:15:24;;;;;;;4.85;3.15;;;25.20;47.80;;;;;;4342563;32;20106;-68
2021/07/29 12:17:51;;;;;;;4.72;3.22;;;25.50;47.80;;;;;;4360737;32;20150;-67
2021/07/29 12:20:19;;;;;;;7.05;3.45;;;25.20;47.50;;;;;;4335603;32;20495;-68
2021/07/29 12:22:45;;;;;;;7.00;3.40;;;25.20;47.80;;;;;;4335658;32;20070;-70
2021/07/29 12:25:31;;;;;;;6.18;3.42;;;25.40;47.70;;;;;;4347390;32;20501;-65
2021/07/29 12:27:58;;;;;;;6.60;3.70;;;25.00;48.20;;;;;;4347521;32;20109;-66
2021/07/29 12:30:45;;;;;;;5.87;3.25;;;25.10;48.70;;;;;;4334044;32;20069;-69
2021/07/29 12:33:16;;;;;;;3.97;3.17;;;24.90;49.40;;;;;;4348068;32;20505;-70
2021/07/29 12:35:56;;;;;;;5.15;3.40;;;24.70;50.30;;;;;;4345848;32;20155;-69
2021/07/29 12:38:36;;;;;;;6.32;3.33;;;24.70;50.40;;;;;;4319879;32;20070;-72
2021/07/29 12:41:04;;;;;;;5.80;3.33;;;24.70;50.80;;;;;;4323787;32;20067;-71
2021/07/29 12:43:30;;;;;;;5.30;3.35;;;24.80;51.10;;;;;;4318972;32;20106;-72
2021/07/29 12:45:57;;;;;;;5.55;3.05;;;25.10;50.50;;;;;;4346517;32;20070;-72
2021/07/29 12:48:27;;;;;;;4.12;3.10;;;25.10;51.60;;;;;;4358068;32;20082;-72
2021/07/29 12:50:54;;;;;;;7.93;3.50;;;25.20;50.40;;;;;;4335835;32;20138;-71
2021/07/29 12:53:21;;;;;;;6.28;3.60;;;25.20;50.30;;;;;;4319318;32;20226;-67